Chamberlain, South Dakota
Current Conditions -  °F | °C
As of 3:55 PM on Monday 22 Dec 2014 (Local Time) from K9V9 Reporting Station
Overcast Overcast  
Wind Chill: 23°   Ceiling: 3200
Heat Index: 33°   Visibility: 10mi
Dew Point: 31°   Wind: 17mph
Humidity: 90%   Direction: 310°NW
Pressure: 29.45"   Gusts: 23mph
Location:  43.79°N, 99.31°W
Report Text: K9V9 222155Z AUTO 31015G20KT 10SM SCT011 BKN032 OVC043 01/M01 A2945 RMK AO2 T00081007
Loading
Personal Weather Stations






























Interactive Weather Map New forecast layout! Learn more

10-Day Weather Forecast

Advertisements
Track Severe Weather on mobile